createdAt,value
2023-01-09T00:04:39.780Z,100105.54
2023-01-09T00:07:42.254Z,100108.98
2023-01-09T00:10:44.420Z,100107.95
2023-01-09T00:13:46.994Z,100112.61
2023-01-09T00:16:54.523Z,100116.43
2023-01-09T00:19:58.300Z,100114.35
2023-01-09T00:23:00.578Z,100118.30
2023-01-09T00:39:35.599Z,100096.23
2023-01-09T00:42:38.276Z,100095.21
2023-01-09T00:45:40.775Z,100088.98
2023-01-09T00:48:45.681Z,100086.77
2023-01-09T00:51:48.911Z,100083.13
2023-01-09T00:54:51.259Z,100073.48
2023-01-09T00:57:53.744Z,100069.02
2023-01-09T01:00:56.313Z,100068.66
2023-01-09T01:03:58.891Z,100067.28
2023-01-09T01:07:20.007Z,100067.28
2023-01-09T01:10:25.262Z,100056.39
2023-01-09T01:13:27.581Z,100053.57
2023-01-09T01:16:30.097Z,100052.48
2023-01-09T01:19:33.708Z,100042.79
2023-01-09T01:22:36.306Z,100037.95
2023-01-09T01:25:40.505Z,100033.09
2023-01-09T01:28:43.419Z,100031.71
2023-01-09T01:31:47.008Z,100014.63
2023-01-09T01:34:49.373Z,100014.48
2023-01-09T01:37:51.647Z,100016.23
2023-01-09T01:40:54.835Z,100018.02
2023-01-09T01:43:59.280Z,100007.48
2023-01-09T01:47:01.984Z,100003.49
2023-01-09T01:50:09.641Z,100005.88
2023-01-09T01:53:49.825Z,100000.34
2023-01-09T01:56:58.649Z,99992.73
2023-01-09T02:00:03.689Z,99991.48
2023-01-09T02:04:20.214Z,99979.89
2023-01-09T02:07:22.564Z,99970.05
2023-01-09T02:10:25.700Z,99969.20
2023-01-09T02:13:28.451Z,99972.83
2023-01-09T02:16:52.320Z,99963.02
2023-01-09T02:20:09.355Z,99963.03
2023-01-09T02:23:42.965Z,99960.96
2023-01-09T02:27:04.024Z,99949.09
2023-01-09T02:30:32.441Z,99944.79
2023-01-09T02:34:06.110Z,99947.39
2023-01-09T02:37:20.428Z,99944.09
2023-01-09T02:40:33.660Z,99945.66
2023-01-09T02:43:35.913Z,99949.45
2023-01-09T02:46:38.097Z,99941.50
2023-01-09T02:49:40.716Z,99942.22
2023-01-09T02:52:59.011Z,99938.63
2023-01-09T02:56:10.446Z,99939.70
2023-01-09T02:59:12.568Z,99934.52
2023-01-09T03:02:47.734Z,99932.27
2023-01-09T03:06:27.827Z,99934.19
2023-01-09T03:09:36.401Z,99935.88
2023-01-09T03:12:39.995Z,99932.91
2023-01-09T03:15:46.111Z,99931.16
2023-01-09T03:18:50.789Z,99926.69
2023-01-09T03:21:54.086Z,99924.31
2023-01-09T03:24:56.559Z,99917.60
2023-01-09T03:28:02.222Z,99915.37
2023-01-09T03:31:04.621Z,99906.23
2023-01-09T03:34:06.934Z,99907.29
2023-01-09T03:37:09.294Z,99908.34
2023-01-09T03:40:12.365Z,99906.94
2023-01-09T03:43:16.357Z,99902.81
2023-01-09T03:46:18.624Z,99899.27
2023-01-09T03:49:21.916Z,99902.73
2023-01-09T03:52:24.314Z,99902.22
2023-01-09T03:55:26.781Z,99902.75
2023-01-09T03:58:29.074Z,99901.35
2023-01-09T04:04:39.165Z,99891.38
2023-01-09T04:07:41.585Z,99893.30
2023-01-09T04:10:45.637Z,99889.34
2023-01-09T04:14:05.414Z,99882.96
2023-01-09T04:17:09.482Z,99881.80
2023-01-09T04:20:12.289Z,99883.38
2023-01-09T04:23:15.091Z,99879.09
2023-01-09T04:26:17.460Z,99878.02
2023-01-09T04:29:20.249Z,99877.80
2023-01-09T04:32:22.764Z,99865.99
2023-01-09T04:35:25.121Z,99861.16
2023-01-09T04:38:27.366Z,99862.58
2023-01-09T04:41:48.093Z,99866.86
2023-01-09T04:44:53.424Z,99864.09
2023-01-09T04:47:55.697Z,99866.81
2023-01-09T04:50:59.394Z,99862.63
2023-01-09T04:54:01.713Z,99858.14
2023-01-09T04:57:03.991Z,99859.92
2023-01-09T05:00:09.461Z,99860.68
2023-01-09T05:03:11.694Z,99862.39
2023-01-09T05:06:17.446Z,99855.45
2023-01-09T05:09:20.009Z,99857.54
2023-01-09T05:12:22.603Z,99851.66
2023-01-09T05:15:28.475Z,99850.28
2023-01-09T05:18:30.916Z,99849.42
2023-01-09T05:21:33.310Z,99848.02
2023-01-09T05:24:35.671Z,99852.13
2023-01-09T05:27:37.935Z,99853.48
2023-01-09T05:30:41.857Z,99853.96
2023-01-09T05:33:44.437Z,99847.73
2023-01-09T05:36:47.015Z,99842.89
2023-01-09T05:39:49.839Z,99840.65
2023-01-09T05:42:52.268Z,99840.32
2023-01-09T05:45:55.328Z,99839.60
2023-01-09T05:48:57.948Z,99839.39
2023-01-09T05:52:00.426Z,99837.28
2023-01-09T05:55:03.115Z,99842.10
2023-01-09T05:58:07.429Z,99840.21
2023-01-09T06:04:21.311Z,99835.14
2023-01-09T06:07:23.868Z,99834.61
2023-01-09T06:10:26.247Z,99830.30
2023-01-09T06:13:28.623Z,99834.93
2023-01-09T06:16:31.330Z,99829.36
2023-01-09T06:19:33.597Z,99828.11
2023-01-09T06:22:36.067Z,99828.27
2023-01-09T06:25:38.328Z,99820.48
2023-01-09T06:28:40.616Z,99818.23
2023-01-09T06:31:43.280Z,99820.10
2023-01-09T06:34:45.553Z,99819.06
2023-01-09T06:37:49.069Z,99816.10
2023-01-09T06:52:26.736Z,99813.97
2023-01-09T06:55:29.143Z,99817.94
2023-01-09T06:58:31.615Z,99816.02
2023-01-09T07:01:34.048Z,99820.10
2023-01-09T07:04:36.771Z,99809.33
2023-01-09T07:07:41.613Z,99808.62
2023-01-09T07:10:44.469Z,99799.73
2023-01-09T08:02:56.215Z,99807.30
2023-01-09T08:05:58.874Z,99811.82
2023-01-09T08:09:02.383Z,99810.48
2023-01-09T08:12:05.659Z,99803.59
2023-01-09T08:15:09.772Z,99804.16
2023-01-09T08:18:12.148Z,99802.16
2023-01-09T08:21:14.429Z,99803.79
2023-01-09T08:24:16.776Z,99799.77
2023-01-09T08:27:21.944Z,99797.23
2023-01-09T08:30:24.418Z,99785.24
2023-01-09T08:33:29.557Z,99776.06
2023-01-09T08:36:32.328Z,99776.34
2023-01-09T08:39:36.250Z,99778.20
2023-01-09T08:42:58.496Z,99770.04
2023-01-09T08:46:21.276Z,99764.48
2023-01-09T08:49:24.087Z,99750.73
2023-01-09T08:52:27.025Z,99744.77
2023-01-09T08:55:29.150Z,99744.70
2023-01-09T09:02:02.424Z,99731.98
2023-01-09T09:05:05.400Z,99738.30
2023-01-09T09:08:09.949Z,99730.30
2023-01-09T09:11:12.504Z,99722.81
2023-01-09T09:14:34.793Z,99713.09
2023-01-09T09:17:37.439Z,99714.07
2023-01-09T09:20:40.627Z,99707.80
2023-01-09T09:23:44.438Z,99708.11
2023-01-09T09:26:49.579Z,99710.31
2023-01-09T09:29:53.999Z,99705.33
2023-01-09T09:32:56.462Z,99705.17
2023-01-09T09:36:01.518Z,99705.17
2023-01-09T09:39:07.400Z,99706.45
2023-01-09T09:42:34.962Z,99701.34
2023-01-09T09:46:04.008Z,99702.63
2023-01-09T09:49:17.089Z,99695.48
2023-01-09T09:52:40.450Z,99692.62
2023-01-09T09:55:45.007Z,99692.56
2023-01-09T09:58:59.617Z,99687.03
2023-01-09T10:04:49.252Z,99674.48
2023-01-09T10:07:53.462Z,99672.63
2023-01-09T10:10:56.552Z,99657.73
2023-01-09T10:14:08.421Z,99657.21
2023-01-09T10:17:48.557Z,99658.71
2023-01-09T10:21:00.586Z,99654.23
2023-01-09T10:24:14.243Z,99654.83
2023-01-09T10:27:41.798Z,99653.88
2023-01-09T10:31:05.601Z,99644.91
2023-01-09T10:34:26.844Z,99641.84
2023-01-09T10:37:41.358Z,99643.29
2023-01-09T10:40:51.147Z,99649.56
2023-01-09T10:44:08.545Z,99645.77
2023-01-09T10:47:22.370Z,99638.70
2023-01-09T10:50:34.775Z,99639.35
2023-01-09T10:53:39.864Z,99634.95
2023-01-09T10:56:48.331Z,99638.02
2023-01-09T10:59:51.020Z,99635.11
2023-01-09T11:02:55.145Z,99636.08
2023-01-09T11:05:59.986Z,99630.10
2023-01-09T11:09:03.623Z,99632.00
2023-01-09T11:12:24.348Z,99624.33
2023-01-09T11:15:29.484Z,99621.46
2023-01-09T11:18:34.172Z,99615.73
2023-01-09T11:21:42.568Z,99620.52
2023-01-09T11:24:45.141Z,99623.24
2023-01-09T11:28:16.889Z,99622.34
2023-01-09T11:31:24.955Z,99628.09
2023-01-09T11:34:31.811Z,99623.56
2023-01-09T11:37:34.891Z,99621.41
2023-01-09T11:41:04.806Z,99610.71
2023-01-09T11:44:15.997Z,99614.38
2023-01-09T11:47:37.719Z,99616.30
2023-01-09T11:50:40.306Z,99618.16
2023-01-09T11:53:54.451Z,99617.66
2023-01-09T11:56:57.164Z,99616.67
2023-01-09T12:00:03.815Z,99603.01
2023-01-09T16:02:57.508Z,99609.69
2023-01-09T16:06:09.372Z,99602.56
2023-01-09T16:09:29.064Z,99601.71
2023-01-09T16:12:33.892Z,99604.63
2023-01-09T16:15:37.552Z,99605.22
2023-01-09T16:18:50.777Z,99611.04
2023-01-09T16:21:58.016Z,99610.53
2023-01-09T16:25:29.376Z,99605.66
2023-01-09T16:28:31.849Z,99605.08
2023-01-09T16:31:34.483Z,99600.77
2023-01-09T16:34:41.913Z,99603.00
2023-01-09T16:37:44.502Z,99602.77
2023-01-09T16:41:19.033Z,99597.66
2023-01-09T16:44:22.015Z,99598.70
2023-01-09T16:47:24.451Z,99593.48
2023-01-09T16:50:28.538Z,99592.05
2023-01-09T16:53:32.412Z,99598.05
2023-01-09T16:56:36.375Z,99599.70
2023-01-09T16:59:39.536Z,99594.56
2023-01-09T17:02:42.047Z,99597.98
2023-01-09T17:05:44.632Z,99604.73
2023-01-09T17:08:47.773Z,99607.02
2023-01-09T17:11:50.147Z,99607.47
2023-01-09T17:14:55.397Z,99609.66
2023-01-09T17:18:00.862Z,99605.14
2023-01-09T17:21:03.420Z,99611.73
2023-01-09T17:24:25.681Z,99605.58
2023-01-09T17:27:53.948Z,99608.80
2023-01-09T17:31:14.304Z,99610.64
2023-01-09T17:34:16.851Z,99617.72
2023-01-09T17:37:19.389Z,99622.48
2023-01-09T17:40:23.304Z,99621.64
2023-01-09T17:43:26.119Z,99614.95
2023-01-09T17:46:37.384Z,99606.21
2023-01-09T17:49:41.864Z,99603.50
2023-01-09T17:52:44.516Z,99603.05
2023-01-09T17:55:47.204Z,99599.08
2023-01-09T17:58:50.567Z,99598.79
2023-01-09T18:04:47.622Z,99594.17
2023-01-09T18:07:50.241Z,99590.14
2023-01-09T18:10:52.605Z,99590.14
2023-01-09T18:27:27.472Z,99579.45
2023-01-09T18:30:29.936Z,99583.82
2023-01-09T18:33:32.988Z,99576.53
2023-01-09T18:36:35.744Z,99572.23
2023-01-09T18:39:38.250Z,99570.34
2023-01-09T18:42:41.755Z,99567.07
2023-01-09T18:45:44.174Z,99563.55
2023-01-09T18:49:01.309Z,99559.96
2023-01-09T18:52:05.263Z,99553.50
2023-01-09T18:55:09.437Z,99560.25
2023-01-09T18:58:11.770Z,99555.16
2023-01-09T19:01:15.783Z,99565.45
2023-01-09T19:04:18.202Z,99565.80
2023-01-09T19:07:20.764Z,99561.55
2023-01-09T19:10:23.424Z,99563.17
2023-01-09T19:13:29.121Z,99569.39
2023-01-09T19:16:31.704Z,99573.27
2023-01-09T19:19:34.839Z,99570.23
2023-01-09T19:22:37.821Z,99560.69
2023-01-09T19:25:40.934Z,99561.65
2023-01-09T19:28:45.868Z,99574.80
2023-01-09T19:31:48.867Z,99569.32
2023-01-09T19:34:51.203Z,99575.95
2023-01-09T19:37:53.953Z,99578.91
2023-01-09T19:40:56.678Z,99586.02
2023-01-09T19:44:02.448Z,99582.11
2023-01-09T19:47:06.014Z,99578.08
2023-01-09T19:50:08.865Z,99577.00
2023-01-09T22:14:27.273Z,99616.09
2023-01-09T22:17:29.748Z,99620.48
2023-01-09T22:20:31.713Z,99618.23
2023-01-09T22:23:34.005Z,99615.80
2023-01-09T22:26:38.329Z,99623.88
2023-01-09T22:29:40.483Z,99623.98
2023-01-09T22:32:45.409Z,99628.88
2023-01-09T22:35:47.491Z,99631.76
2023-01-09T22:38:53.139Z,99633.61
2023-01-09T22:41:55.406Z,99632.70
2023-01-09T22:44:57.684Z,99642.87
2023-01-09T22:47:59.967Z,99652.02
2023-01-09T22:51:08.112Z,99649.19
2023-01-09T22:54:10.758Z,99653.08
2023-01-09T22:57:17.339Z,99655.24
2023-01-09T23:00:19.567Z,99658.20
2023-01-09T23:03:22.622Z,99658.02
2023-01-09T23:06:25.375Z,99664.27
2023-01-09T23:09:27.770Z,99665.42
2023-01-09T23:12:29.821Z,99670.51
2023-01-09T23:15:32.012Z,99674.05
2023-01-09T23:18:37.636Z,99677.55
2023-01-09T23:21:40.320Z,99680.03
2023-01-09T23:24:42.486Z,99682.54
2023-01-09T23:27:44.759Z,99677.89
2023-01-09T23:30:47.748Z,99675.10
2023-01-09T23:33:49.820Z,99675.25
2023-01-09T23:36:54.886Z,99670.65
2023-01-09T23:39:56.926Z,99668.76
2023-01-09T23:43:08.618Z,99668.92
2023-01-09T23:46:14.581Z,99672.56
2023-01-09T23:49:17.676Z,99678.83
2023-01-09T23:52:19.678Z,99678.36
2023-01-09T23:55:21.821Z,99669.54
2023-01-09T23:58:23.977Z,99671.14
